Time;durP1;ratioP1;P1;durP2;ratioP2;P2;SDS_P1;SDS_P2;PMS_P1;PMS_P2;Temp;Humidity;BMP_temperature;BMP_pressure;BME280_temperature;BME280_humidity;BME280_pressure;Samples;Min_cycle;Max_cycle;Signal;HPM_P1;HPM_P2
2023/03/05 00:01:26;;;;;;;52.58;29.75;;;;;;;7.33;63.91;93376.56;5019090;28;20058;-75
2023/03/05 00:03:53;;;;;;;61.50;29.83;;;;;;;7.15;64.80;93365.09;5017909;28;20033;-76
2023/03/05 00:06:20;;;;;;;49.35;28.00;;;;;;;7.40;63.36;93388.25;5017358;28;20060;-76
2023/03/05 00:08:45;;;;;;;47.60;28.38;;;;;;;7.34;62.45;93378.13;5014964;28;20041;-76
2023/03/05 00:11:12;;;;;;;52.92;28.75;;;;;;;7.23;63.05;93362.50;5016414;28;20605;-76
2023/03/05 00:13:38;;;;;;;45.35;30.50;;;;;;;7.14;63.00;93345.03;5012351;28;20049;-76
2023/03/05 00:16:10;;;;;;;36.53;23.80;;;;;;;7.19;62.86;93344.91;5016654;28;20045;-76
2023/03/05 00:18:36;;;;;;;38.05;24.52;;;;;;;7.21;62.89;93348.81;5017074;28;20576;-76
2023/03/05 00:21:01;;;;;;;37.35;24.83;;;;;;;7.24;62.98;93348.19;5014135;28;20034;-75
2023/03/05 00:23:27;;;;;;;34.05;23.25;;;;;;;7.27;63.54;93357.38;5014910;28;20037;-74
2023/03/05 00:25:52;;;;;;;39.20;23.50;;;;;;;7.29;63.91;93363.94;5018657;28;20348;-75
2023/03/05 00:28:18;;;;;;;38.17;23.27;;;;;;;7.32;64.01;93365.19;5012842;28;20378;-76
2023/03/05 00:30:43;;;;;;;36.60;23.13;;;;;;;7.33;64.00;93358.84;5017706;28;20049;-76
2023/03/05 00:33:11;;;;;;;33.25;22.38;;;;;;;7.26;64.26;93353.97;5017468;28;20076;-76
2023/03/05 00:35:45;;;;;;;40.90;24.42;;;;;;;7.29;64.22;93363.13;5014557;28;20041;-75
2023/03/05 00:38:11;;;;;;;39.25;23.27;;;;;;;7.18;64.51;93332.75;5016690;28;20169;-75
2023/03/05 00:40:38;;;;;;;43.58;26.27;;;;;;;7.18;64.61;93335.41;5011439;28;20042;-75
2023/03/05 00:43:04;;;;;;;46.13;25.58;;;;;;;7.20;64.54;93351.75;5017905;28;20048;-75
2023/03/05 00:45:30;;;;;;;39.50;25.45;;;;;;;7.32;64.30;93354.63;5014207;28;20044;-75
2023/03/05 00:47:55;;;;;;;40.85;23.73;;;;;;;7.32;62.51;93346.69;5017429;28;20480;-74
2023/03/05 00:50:20;;;;;;;42.10;23.40;;;;;;;7.36;61.52;93341.56;5016258;28;20087;-75
2023/03/05 00:52:46;;;;;;;37.20;21.75;;;;;;;7.23;61.63;93330.78;4998084;28;20469;-75
2023/03/05 00:55:11;;;;;;;31.35;20.95;;;;;;;6.99;61.50;93308.38;5014925;28;20256;-76
2023/03/05 00:57:37;;;;;;;32.40;20.65;;;;;;;7.08;62.03;93309.22;5016399;28;20052;-75
2023/03/05 01:00:04;;;;;;;34.97;19.65;;;;;;;7.01;58.94;93319.44;4995169;28;20060;-75
2023/03/05 01:02:30;;;;;;;29.17;17.70;;;;;;;6.99;59.73;93319.75;5016238;28;20037;-74
2023/03/05 01:04:55;;;;;;;29.83;17.50;;;;;;;6.72;59.40;93302.16;5012100;28;20476;-75
2023/03/05 01:07:21;;;;;;;28.95;16.38;;;;;;;6.85;58.87;93319.78;5014599;28;20022;-75
2023/03/05 01:09:46;;;;;;;27.52;16.92;;;;;;;6.65;59.62;93298.38;5012579;28;20064;-75
2023/03/05 01:12:12;;;;;;;30.85;18.23;;;;;;;6.64;59.62;93302.09;4996908;28;20059;-75
2023/03/05 01:14:37;;;;;;;34.20;18.27;;;;;;;6.67;59.73;93307.56;4997631;28;20124;-75
2023/03/05 01:17:02;;;;;;;30.65;17.33;;;;;;;6.61;59.63;93321.16;5015603;28;20489;-75
2023/03/05 01:19:28;;;;;;;30.23;18.63;;;;;;;6.24;60.56;93283.44;5019321;28;20032;-76
2023/03/05 01:21:53;;;;;;;30.10;18.67;;;;;;;6.38;60.73;93305.31;5012041;28;20030;-75
2023/03/05 01:24:19;;;;;;;32.85;18.02;;;;;;;6.41;60.40;93293.34;5016688;28;20046;-76
2023/03/05 01:26:45;;;;;;;29.10;18.13;;;;;;;6.47;59.77;93315.94;4993468;28;20033;-75
2023/03/05 01:29:11;;;;;;;30.08;19.27;;;;;;;6.30;60.85;93305.25;5003887;28;20092;-76
2023/03/05 01:31:36;;;;;;;27.88;16.42;;;;;;;6.17;60.17;93288.34;5012566;28;20056;-76
2023/03/05 01:34:02;;;;;;;25.83;16.27;;;;;;;6.10;61.05;93297.75;5014760;28;20041;-76
2023/03/05 01:36:27;;;;;;;32.85;18.52;;;;;;;6.06;60.38;93273.81;5016452;28;20133;-75
2023/03/05 01:38:53;;;;;;;35.90;19.00;;;;;;;6.19;60.29;93286.22;5015150;28;20061;-75
2023/03/05 01:41:19;;;;;;;30.77;18.40;;;;;;;6.22;60.82;93282.19;5000606;28;20036;-75
2023/03/05 01:43:46;;;;;;;29.25;18.95;;;;;;;6.20;60.73;93287.78;5016719;28;20536;-75
2023/03/05 01:46:28;;;;;;;33.00;19.45;;;;;;;6.39;60.58;93298.19;5016497;28;20041;-76
2023/03/05 01:49:02;;;;;;;34.45;18.20;;;;;;;6.42;60.78;93305.50;5011297;28;20041;-74
2023/03/05 01:51:34;;;;;;;30.38;17.17;;;;;;;6.16;60.51;93280.75;4993415;28;20037;-74
2023/03/05 01:54:01;;;;;;;26.08;15.60;;;;;;;6.24;58.45;93304.59;5012598;28;20044;-76
2023/03/05 01:56:28;;;;;;;30.48;17.92;;;;;;;5.81;58.46;93254.00;4998496;28;20029;-74
2023/03/05 01:59:02;;;;;;;22.35;15.02;;;;;;;6.20;58.83;93308.13;5000760;28;20385;-75
2023/03/05 02:01:29;;;;;;;33.40;17.23;;;;;;;5.88;58.81;93278.13;5016642;28;20076;-75
2023/03/05 02:03:55;;;;;;;28.27;17.00;;;;;;;6.06;59.28;93296.78;5014674;28;20034;-75
2023/03/05 02:06:20;;;;;;;32.33;17.58;;;;;;;6.24;59.26;93309.06;5002947;28;20146;-75
2023/03/05 02:08:45;;;;;;;27.92;16.65;;;;;;;6.24;59.67;93304.59;5017345;28;20489;-75
2023/03/05 02:11:11;;;;;;;33.67;18.17;;;;;;;6.14;59.59;93293.44;5019446;28;20071;-74
2023/03/05 02:13:39;;;;;;;28.13;17.85;;;;;;;6.26;58.60;93291.84;5021260;28;20040;-75
2023/03/05 02:16:05;;;;;;;28.38;18.02;;;;;;;6.23;57.57;93257.34;5019661;28;20036;-75
2023/03/05 02:18:31;;;;;;;29.73;17.75;;;;;;;6.41;56.64;93294.13;5021568;28;20033;-75
2023/03/05 02:20:59;;;;;;;26.13;17.25;;;;;;;6.47;55.68;93308.03;5002685;28;20033;-76
2023/03/05 02:23:32;;;;;;;28.95;17.67;;;;;;;6.15;56.77;93292.34;5018318;28;20089;-75
2023/03/05 02:25:58;;;;;;;28.75;17.85;;;;;;;6.34;56.80;93309.63;4988435;28;20018;-76
2023/03/05 02:28:53;;;;;;;28.23;16.05;;;;;;;6.22;56.78;93300.66;5001610;28;20080;-75
2023/03/05 02:31:21;;;;;;;29.95;18.00;;;;;;;6.35;56.85;93299.84;4999715;28;20045;-75
2023/03/05 02:33:47;;;;;;;23.27;15.20;;;;;;;6.53;55.84;93312.13;5001076;28;20030;-76
2023/03/05 02:36:13;;;;;;;28.85;18.05;;;;;;;6.38;55.96;93291.31;4983485;28;20401;-75
2023/03/05 02:38:40;;;;;;;41.53;17.88;;;;;;;6.46;56.54;93305.69;5000018;28;20041;-76
2023/03/05 02:41:05;;;;;;;23.90;14.70;;;;;;;6.08;56.45;93257.66;5000182;28;20357;-75
2023/03/05 02:43:30;;;;;;;25.95;15.70;;;;;;;6.36;55.96;93301.44;5001954;28;20026;-76
2023/03/05 02:45:56;;;;;;;25.20;16.17;;;;;;;6.40;56.13;93302.38;4998153;28;20034;-76
2023/03/05 02:48:21;;;;;;;29.45;16.90;;;;;;;6.36;55.13;93288.22;5000103;28;20989;-75
2023/03/05 02:50:48;;;;;;;27.60;15.52;;;;;;;6.32;55.56;93317.06;5000381;28;20037;-76
2023/03/05 02:53:13;;;;;;;26.48;15.73;;;;;;;6.18;55.54;93300.47;4998121;28;20072;-75
2023/03/05 02:55:38;;;;;;;29.25;15.60;;;;;;;6.21;56.21;93315.75;4987898;28;20065;-74
2023/03/05 02:58:04;;;;;;;26.65;15.90;;;;;;;6.15;56.42;93318.75;4998973;28;20509;-75
2023/03/05 03:00:30;;;;;;;29.20;17.42;;;;;;;6.20;56.54;93314.19;4983550;28;20030;-75
2023/03/05 03:02:55;;;;;;;26.48;16.08;;;;;;;6.22;56.40;93314.66;5000148;28;20516;-75
2023/03/05 03:05:20;;;;;;;30.92;17.95;;;;;;;6.08;56.87;93305.16;5004847;28;20037;-76
2023/03/05 03:07:46;;;;;;;29.77;16.73;;;;;;;6.02;56.09;93281.50;5002893;28;21031;-75
2023/03/05 03:10:11;;;;;;;26.63;17.20;;;;;;;5.97;56.95;93300.09;4997520;28;20065;-76
2023/03/05 03:12:42;;;;;;;28.83;17.15;;;;;;;5.95;57.19;93306.75;5001560;28;20170;-76
2023/03/05 03:15:11;;;;;;;30.27;17.70;;;;;;;5.75;57.78;93313.25;4997602;28;20042;-75
2023/03/05 03:17:36;;;;;;;29.60;17.48;;;;;;;5.73;57.64;93304.81;4982897;28;20041;-75
2023/03/05 03:20:07;;;;;;;30.48;16.60;;;;;;;5.58;58.23;93305.13;4996770;28;20033;-75
2023/03/05 03:22:33;;;;;;;25.65;16.20;;;;;;;5.49;58.71;93291.06;5000409;28;20053;-75
2023/03/05 03:25:00;;;;;;;53.70;17.10;;;;;;;5.79;57.88;93335.31;5015110;28;20072;-75
2023/03/05 03:27:26;;;;;;;32.05;17.77;;;;;;;5.88;57.48;93333.53;5000964;28;20041;-76
2023/03/05 03:29:51;;;;;;;28.25;16.05;;;;;;;5.75;57.07;93329.06;5000474;28;20046;-75
2023/03/05 03:32:17;;;;;;;30.75;16.80;;;;;;;5.34;57.83;93334.31;5019396;28;20355;-75
2023/03/05 03:34:43;;;;;;;30.60;16.65;;;;;;;5.16;58.90;93323.84;5019924;28;20034;-75
2023/03/05 03:37:09;;;;;;;30.95;18.02;;;;;;;5.05;59.36;93310.84;5002474;28;20690;-75
2023/03/05 03:39:34;;;;;;;36.30;18.50;;;;;;;5.18;58.49;93314.59;5018388;28;20045;-74
2023/03/05 03:42:00;;;;;;;35.53;19.35;;;;;;;5.08;59.36;93341.91;5017899;28;20026;-75
2023/03/05 03:44:25;;;;;;;33.97;18.27;;;;;;;5.03;59.51;93333.31;5017672;28;20104;-75
2023/03/05 03:46:51;;;;;;;29.65;17.58;;;;;;;5.09;59.67;93327.63;5020603;28;20061;-77
2023/03/05 03:49:22;;;;;;;30.35;18.98;;;;;;;5.30;58.67;93332.56;5003256;28;20068;-74
2023/03/05 03:51:49;;;;;;;28.73;17.98;;;;;;;5.32;58.28;93325.16;5012467;28;20033;-75
2023/03/05 03:54:16;;;;;;;33.80;19.02;;;;;;;5.27;58.28;93322.59;5000949;28;20517;-75
2023/03/05 03:56:42;;;;;;;34.63;19.30;;;;;;;5.21;58.07;93318.50;5019621;28;20064;-75
2023/03/05 03:59:08;;;;;;;31.20;18.77;;;;;;;5.21;58.06;93321.13;5018660;28;20052;-75
2023/03/05 04:01:33;;;;;;;31.92;19.27;;;;;;;5.11;58.85;93319.44;5021283;28;20030;-75
2023/03/05 04:03:59;;;;;;;35.42;17.52;;;;;;;5.20;58.45;93316.91;5006077;28;20079;-75
2023/03/05 04:06:24;;;;;;;34.47;18.45;;;;;;;5.10;58.51;93334.47;5021559;28;20048;-75
2023/03/05 04:08:50;;;;;;;31.27;19.70;;;;;;;5.19;58.45;93325.94;5023778;28;20038;-77
2023/03/05 04:11:18;;;;;;;34.95;19.45;;;;;;;5.09;59.16;93340.81;5006727;28;20830;-76
2023/03/05 04:13:43;;;;;;;35.67;18.40;;;;;;;4.98;59.09;93336.81;5020618;28;20587;-76
2023/03/05 04:16:09;;;;;;;34.40;19.48;;;;;;;4.88;59.09;93305.34;5019993;28;20037;-75
2023/03/05 04:18:34;;;;;;;31.80;18.88;;;;;;;5.07;59.03;93332.44;5018008;28;20033;-75
2023/03/05 04:21:00;;;;;;;36.75;20.45;;;;;;;4.92;59.68;93345.09;5019183;28;20049;-76
2023/03/05 04:23:25;;;;;;;35.90;19.20;;;;;;;4.84;59.80;93343.13;5000232;28;20529;-75
2023/03/05 04:25:50;;;;;;;37.05;20.38;;;;;;;5.01;59.44;93341.50;5021047;28;20440;-75
2023/03/05 04:28:16;;;;;;;35.40;20.50;;;;;;;4.78;59.00;93289.72;5016138;28;20041;-75
2023/03/05 04:30:42;;;;;;;34.63;18.45;;;;;;;4.97;59.38;93351.06;5018789;28;20396;-76
2023/03/05 04:33:08;;;;;;;32.75;19.88;;;;;;;4.96;59.54;93327.63;5020421;28;20105;-75
2023/03/05 04:35:33;;;;;;;31.95;19.02;;;;;;;4.94;58.81;93303.44;5023419;28;20030;-75
2023/03/05 04:37:59;;;;;;;35.13;20.40;;;;;;;5.01;58.64;93338.84;5020875;28;20021;-76
2023/03/05 04:40:24;;;;;;;34.28;19.50;;;;;;;5.10;58.58;93337.13;5021664;28;20150;-75
2023/03/05 04:42:49;;;;;;;31.05;19.15;;;;;;;5.13;58.02;93320.75;5015888;28;20037;-75
2023/03/05 04:45:16;;;;;;;36.83;19.42;;;;;;;5.18;57.78;93335.69;5020281;28;20170;-75
2023/03/05 04:47:44;;;;;;;28.35;18.45;;;;;;;5.00;57.70;93287.22;5006803;28;20041;-76
2023/03/05 04:50:11;;;;;;;40.35;21.30;;;;;;;5.21;57.34;93323.75;5016696;28;20071;-75
2023/03/05 04:52:41;;;;;;;33.03;18.92;;;;;;;5.17;57.74;93318.28;5020720;28;20026;-75
2023/03/05 04:55:07;;;;;;;35.03;19.60;;;;;;;5.13;57.58;93318.09;5018144;28;20037;-75
2023/03/05 04:57:32;;;;;;;32.70;18.98;;;;;;;5.28;57.76;93329.44;5021239;28;20045;-74
2023/03/05 04:59:58;;;;;;;37.88;21.08;;;;;;;5.23;56.60;93324.25;5016789;28;20042;-74
2023/03/05 05:02:23;;;;;;;32.17;19.08;;;;;;;5.23;56.98;93332.19;5019863;28;20045;-74
2023/03/05 05:04:52;;;;;;;31.55;18.63;;;;;;;5.14;56.87;93324.91;5019271;28;20021;-75
2023/03/05 05:07:17;;;;;;;34.20;21.13;;;;;;;5.20;56.46;93322.97;5000318;28;20045;-76
2023/03/05 05:09:43;;;;;;;32.22;19.38;;;;;;;5.03;56.49;93310.38;5012182;28;20044;-76
2023/03/05 05:12:09;;;;;;;32.00;16.88;;;;;;;4.97;57.00;93316.78;5017320;28;20042;-74
2023/03/05 05:14:35;;;;;;;28.98;16.88;;;;;;;5.13;56.57;93328.66;4999595;28;20125;-74
2023/03/05 05:17:03;;;;;;;33.10;18.80;;;;;;;5.27;56.10;93333.16;5017866;28;20112;-76
2023/03/05 05:19:30;;;;;;;31.48;18.38;;;;;;;5.21;56.29;93334.31;5019240;28;20032;-74
2023/03/05 05:21:55;;;;;;;35.00;19.15;;;;;;;5.20;55.90;93338.78;5015846;28;20103;-74
2023/03/05 05:24:20;;;;;;;29.10;18.38;;;;;;;4.88;55.75;93300.09;5018737;28;20109;-74
2023/03/05 05:26:46;;;;;;;36.50;19.23;;;;;;;5.18;55.79;93340.97;5018763;28;20040;-75
2023/03/05 05:29:11;;;;;;;38.00;20.85;;;;;;;5.10;55.99;93344.25;5020050;28;20102;-74
2023/03/05 05:31:37;;;;;;;35.03;17.60;;;;;;;5.13;55.86;93341.81;5016884;28;20026;-75
2023/03/05 05:34:03;;;;;;;31.73;17.67;;;;;;;5.07;55.24;93329.81;5022457;28;20049;-75
2023/03/05 05:36:28;;;;;;;27.45;15.57;;;;;;;5.14;54.64;93337.31;5020296;28;20039;-75
2023/03/05 05:38:54;;;;;;;30.90;17.65;;;;;;;5.16;54.19;93329.13;5020663;28;20034;-74
2023/03/05 05:41:19;;;;;;;30.08;17.15;;;;;;;5.17;53.38;93343.88;5021935;28;20053;-76
2023/03/05 05:43:45;;;;;;;25.58;15.93;;;;;;;5.12;54.13;93342.91;5021063;28;20573;-74
2023/03/05 05:46:13;;;;;;;28.38;15.32;;;;;;;5.05;53.21;93347.75;5018788;28;20029;-76
2023/03/05 05:48:39;;;;;;;29.42;17.13;;;;;;;5.05;53.47;93345.09;5018157;28;20851;-74
2023/03/05 05:51:07;;;;;;;25.60;14.30;;;;;;;4.85;53.10;93342.81;5019290;28;20044;-74
2023/03/05 05:53:33;;;;;;;28.58;15.27;;;;;;;4.80;53.31;93344.72;5016753;28;20049;-75
2023/03/05 05:55:58;;;;;;;23.67;14.38;;;;;;;4.65;53.43;93353.66;5019476;28;20021;-74
2023/03/05 05:58:24;;;;;;;22.70;12.50;;;;;;;4.73;53.15;93344.34;4998430;28;20052;-75
2023/03/05 06:00:49;;;;;;;22.23;13.63;;;;;;;4.63;52.76;93366.34;5005328;28;20696;-75
2023/03/05 06:03:14;;;;;;;27.63;15.10;;;;;;;4.51;53.09;93352.81;5016992;28;20033;-76
2023/03/05 06:05:41;;;;;;;23.38;12.73;;;;;;;4.46;53.06;93360.78;5018148;28;20044;-75
2023/03/05 06:08:07;;;;;;;25.13;14.52;;;;;;;4.26;53.21;93348.66;5018155;28;20040;-75
2023/03/05 06:10:33;;;;;;;25.92;15.07;;;;;;;4.19;53.35;93372.72;5003641;28;20029;-75
2023/03/05 06:12:59;;;;;;;24.45;13.93;;;;;;;4.19;52.94;93356.16;5019099;28;20037;-75
2023/03/05 06:15:24;;;;;;;27.92;13.77;;;;;;;4.26;53.35;93362.63;5003035;28;20040;-76
2023/03/05 06:17:49;;;;;;;23.13;13.60;;;;;;;4.35;53.88;93364.66;5019323;28;20060;-74
2023/03/05 06:20:15;;;;;;;24.38;13.15;;;;;;;4.48;52.92;93353.41;5020416;28;20428;-75
2023/03/05 06:22:40;;;;;;;22.15;12.55;;;;;;;4.56;52.58;93344.84;5019747;28;20049;-76
2023/03/05 06:25:07;;;;;;;24.52;13.65;;;;;;;4.67;51.65;93372.59;5004579;28;20073;-75
2023/03/05 06:27:34;;;;;;;28.73;13.98;;;;;;;4.84;51.04;93370.25;5017796;28;20038;-75
2023/03/05 06:30:00;;;;;;;22.65;12.48;;;;;;;4.89;49.91;93364.91;5015004;28;20044;-75
2023/03/05 06:32:25;;;;;;;22.48;13.15;;;;;;;5.00;50.49;93376.03;5004441;28;20033;-75
2023/03/05 06:34:51;;;;;;;22.77;12.73;;;;;;;5.01;50.18;93373.13;5017704;28;20057;-75
2023/03/05 06:37:17;;;;;;;26.05;12.75;;;;;;;4.76;50.42;93349.81;5016915;28;20124;-75
2023/03/05 06:39:42;;;;;;;26.50;14.35;;;;;;;4.74;49.82;93346.69;5016254;28;20513;-74
2023/03/05 06:42:08;;;;;;;24.70;13.00;;;;;;;4.96;49.74;93362.66;5003453;28;20044;-75
2023/03/05 06:44:36;;;;;;;25.75;13.68;;;;;;;4.97;49.41;93372.13;5004720;28;20752;-75
2023/03/05 06:47:04;;;;;;;24.98;13.82;;;;;;;5.02;49.06;93372.06;5016693;28;20332;-75
2023/03/05 06:49:29;;;;;;;24.90;14.35;;;;;;;4.89;49.09;93364.91;5018614;28;20749;-74
2023/03/05 06:51:54;;;;;;;25.52;14.35;;;;;;;4.83;48.87;93366.03;5020231;28;20034;-74
2023/03/05 06:54:20;;;;;;;23.95;15.15;;;;;;;4.75;49.06;93361.41;5019992;28;20127;-76
2023/03/05 06:56:46;;;;;;;24.33;14.25;;;;;;;4.67;49.81;93352.31;5023031;28;20071;-75
2023/03/05 06:59:13;;;;;;;27.30;14.27;;;;;;;4.86;49.55;93365.47;5006234;28;20650;-75
2023/03/05 07:01:39;;;;;;;27.27;14.77;;;;;;;5.09;49.33;93385.63;5020012;28;20070;-75
2023/03/05 07:04:05;;;;;;;22.35;14.63;;;;;;;5.16;49.02;93379.22;5002836;28;20625;-76
2023/03/05 07:06:33;;;;;;;31.27;16.38;;;;;;;5.32;47.83;93383.94;5017749;28;20034;-76
2023/03/05 07:09:01;;;;;;;26.77;15.20;;;;;;;4.89;47.53;93357.00;5009695;28;20057;-76
2023/03/05 07:11:27;;;;;;;28.70;17.17;;;;;;;5.16;47.70;93379.22;5011920;28;20052;-75
2023/03/05 07:13:52;;;;;;;28.63;16.25;;;;;;;5.26;48.48;93381.69;5002394;28;20801;-75
2023/03/05 07:16:21;;;;;;;27.63;16.35;;;;;;;5.30;47.51;93364.97;5011675;28;20017;-75
2023/03/05 07:18:46;;;;;;;27.05;15.95;;;;;;;5.47;48.48;93382.91;5011332;28;20045;-75
2023/03/05 07:21:16;;;;;;;30.58;17.40;;;;;;;5.39;47.83;93373.78;5014627;28;20038;-76
2023/03/05 07:23:42;;;;;;;28.05;17.60;;;;;;;5.31;48.16;93345.47;5013777;28;20323;-76
2023/03/05 07:26:07;;;;;;;32.80;18.77;;;;;;;5.33;47.39;93355.72;5014336;28;20030;-75
2023/03/05 07:28:34;;;;;;;27.85;17.55;;;;;;;5.34;48.43;93383.63;5017154;28;20056;-76
2023/03/05 07:31:06;;;;;;;32.85;18.98;;;;;;;5.19;48.95;93374.13;5013019;28;20040;-76
2023/03/05 07:33:33;;;;;;;34.20;19.25;;;;;;;5.36;48.70;93378.88;5010281;28;20038;-73
2023/03/05 07:36:00;;;;;;;28.25;16.58;;;;;;;5.36;48.82;93373.59;5015201;28;20096;-77
2023/03/05 07:38:25;;;;;;;31.88;17.85;;;;;;;5.55;48.74;93379.56;5012957;28;20726;-76
2023/03/05 07:40:51;;;;;;;34.30;19.83;;;;;;;5.72;48.75;93387.72;5015423;28;20136;-77
2023/03/05 07:43:16;;;;;;;30.17;18.50;;;;;;;5.71;48.82;93386.16;5012594;28;20030;-76
2023/03/05 07:45:44;;;;;;;39.28;21.33;;;;;;;5.64;49.41;93372.53;5015304;28;20034;-75
2023/03/05 07:48:16;;;;;;;28.30;18.65;;;;;;;5.50;49.71;93354.06;5014273;28;20049;-76
2023/03/05 07:50:42;;;;;;;31.13;17.98;;;;;;;5.50;49.06;93374.38;5002847;28;20043;-76
2023/03/05 07:53:08;;;;;;;31.05;17.70;;;;;;;5.48;49.08;93366.00;5013925;28;20568;-75
2023/03/05 07:55:40;;;;;;;31.02;18.27;;;;;;;5.60;49.41;93379.47;5010102;28;20049;-76
2023/03/05 07:58:05;;;;;;;38.03;19.98;;;;;;;5.50;49.47;93363.84;4997160;28;20159;-76
2023/03/05 08:00:31;;;;;;;33.67;19.85;;;;;;;5.63;49.50;93383.41;5008290;28;20033;-75
2023/03/05 08:02:56;;;;;;;32.10;19.33;;;;;;;5.61;50.00;93370.50;5008905;28;20426;-75
2023/03/05 08:05:21;;;;;;;36.78;20.17;;;;;;;5.53;49.85;93357.97;5011272;28;20076;-76
2023/03/05 08:07:47;;;;;;;35.65;20.77;;;;;;;5.47;50.08;93365.22;4993467;28;20026;-77
2023/03/05 08:10:12;;;;;;;38.47;22.70;;;;;;;5.56;49.77;93373.22;5013468;28;20783;-74
2023/03/05 08:12:38;;;;;;;34.50;20.67;;;;;;;5.40;50.07;93353.47;5013191;28;20045;-75
2023/03/05 08:15:03;;;;;;;36.10;20.92;;;;;;;5.61;50.11;93388.97;5010835;28;20433;-75
2023/03/05 08:17:29;;;;;;;36.08;20.90;;;;;;;5.43;50.17;93368.72;4999448;28;20083;-73
2023/03/05 08:19:57;;;;;;;35.97;21.00;;;;;;;5.57;50.45;93375.59;5018171;28;20036;-75
2023/03/05 08:22:22;;;;;;;35.70;19.40;;;;;;;5.50;50.28;93358.56;5019459;28;20026;-76
2023/03/05 08:24:49;;;;;;;40.13;23.45;;;;;;;5.53;50.40;93358.75;5017052;28;20064;-75
2023/03/05 08:27:14;;;;;;;36.35;20.38;;;;;;;5.57;49.95;93356.34;4999561;28;20037;-75
2023/03/05 08:29:40;;;;;;;36.13;21.73;;;;;;;5.65;49.50;93386.53;5015884;28;20034;-75
2023/03/05 08:32:05;;;;;;;37.08;21.10;;;;;;;5.61;50.25;93361.81;5015831;28;20120;-75
2023/03/05 08:34:30;;;;;;;36.38;20.08;;;;;;;5.52;49.80;93359.06;5017185;28;20026;-75
2023/03/05 08:36:56;;;;;;;39.92;22.42;;;;;;;5.69;50.31;93363.75;5014988;28;20046;-75
2023/03/05 08:39:21;;;;;;;34.03;21.15;;;;;;;5.81;50.95;93358.78;5016137;28;20030;-76
2023/03/05 08:41:47;;;;;;;34.30;20.60;;;;;;;5.83;49.55;93346.84;5016857;28;20531;-77
2023/03/05 08:44:12;;;;;;;37.97;20.30;;;;;;;6.02;49.63;93365.97;5016147;28;20769;-74
2023/03/05 08:46:39;;;;;;;41.95;22.20;;;;;;;5.77;49.08;93340.13;5016044;28;20037;-75
2023/03/05 08:49:06;;;;;;;35.15;20.58;;;;;;;5.75;48.28;93358.09;4999590;28;20037;-75
2023/03/05 08:51:32;;;;;;;33.40;20.90;;;;;;;5.89;48.59;93350.94;5014834;28;20034;-75
2023/03/05 08:53:58;;;;;;;36.67;21.35;;;;;;;5.83;48.60;93365.31;5002803;28;20038;-75
2023/03/05 08:56:26;;;;;;;36.88;20.55;;;;;;;5.83;47.52;93360.03;5001615;28;20505;-75
2023/03/05 08:58:51;;;;;;;36.38;19.75;;;;;;;5.72;46.95;93348.13;5014303;28;20165;-75
2023/03/05 09:01:17;;;;;;;36.60;20.30;;;;;;;5.64;47.58;93354.06;5000592;28;20500;-75
2023/03/05 09:03:43;;;;;;;36.17;21.55;;;;;;;5.40;47.89;93327.88;5015089;28;20041;-75
2023/03/05 09:06:11;;;;;;;32.40;19.38;;;;;;;5.41;48.45;93331.31;5016480;28;20485;-75
2023/03/05 09:08:37;;;;;;;39.42;20.42;;;;;;;5.67;48.07;93348.22;4995504;28;20037;-76
2023/03/05 09:11:05;;;;;;;39.22;20.73;;;;;;;5.85;46.70;93341.28;5017297;28;20034;-75
2023/03/05 09:13:31;;;;;;;31.25;18.83;;;;;;;5.68;46.68;93338.44;5014762;28;20063;-75
2023/03/05 09:15:59;;;;;;;30.80;18.38;;;;;;;5.70;45.96;93333.66;5015084;28;20115;-76
2023/03/05 09:18:25;;;;;;;32.80;19.27;;;;;;;5.64;45.94;93330.34;5017155;28;20033;-75
2023/03/05 09:20:51;;;;;;;33.42;19.45;;;;;;;5.56;46.71;93326.53;5015387;28;20489;-77
2023/03/05 09:23:16;;;;;;;33.60;18.45;;;;;;;5.80;46.76;93323.69;4996632;28;20151;-75
2023/03/05 09:25:42;;;;;;;32.13;19.35;;;;;;;5.99;46.38;93344.69;5015235;28;20512;-75
2023/03/05 09:28:07;;;;;;;40.75;23.20;;;;;;;5.92;45.79;93339.78;5015336;28;20095;-75
2023/03/05 09:30:36;;;;;;;29.92;18.67;;;;;;;5.84;45.62;93322.03;4998135;28;20040;-76
2023/03/05 09:33:02;;;;;;;30.77;19.55;;;;;;;5.96;45.54;93324.94;5011704;28;20507;-75
2023/03/05 09:35:28;;;;;;;36.97;19.85;;;;;;;5.94;45.58;93331.59;5008889;28;20037;-75
2023/03/05 09:37:54;;;;;;;30.77;19.70;;;;;;;6.02;46.24;93323.75;5011101;28;20938;-76
2023/03/05 09:40:21;;;;;;;28.02;18.63;;;;;;;6.21;45.49;93317.59;5010434;28;20393;-75
2023/03/05 09:43:02;;;;;;;35.13;19.02;;;;;;;6.33;45.46;93313.34;5013869;28;20033;-75
2023/03/05 09:45:53;;;;;;;30.13;18.58;;;;;;;6.35;44.59;93320.97;5001560;28;20115;-74
2023/03/05 09:48:48;;;;;;;33.40;19.85;;;;;;;6.44;43.79;93311.28;4975446;28;20528;-76
2023/03/05 09:51:35;;;;;;;32.28;20.08;;;;;;;6.56;44.85;93292.22;5013034;28;20099;-76
2023/03/05 09:54:06;;;;;;;36.28;19.40;;;;;;;6.58;44.75;93290.84;5002865;28;20041;-75
2023/03/05 09:56:36;;;;;;;30.83;18.92;;;;;;;6.68;44.80;93285.34;4997199;28;20108;-74
2023/03/05 09:59:16;;;;;;;30.17;18.42;;;;;;;6.99;44.45;93303.09;4984672;28;20253;-76
2023/03/05 10:01:43;;;;;;;29.80;19.05;;;;;;;7.07;43.38;93300.50;4992362;28;20026;-76
2023/03/05 10:04:26;;;;;;;33.78;19.33;;;;;;;7.03;41.46;93299.56;5009146;28;20440;-74
2023/03/05 10:06:59;;;;;;;41.08;20.58;;;;;;;7.00;43.14;93299.34;5008142;28;20464;-75
2023/03/05 10:09:30;;;;;;;33.50;19.45;;;;;;;7.05;43.40;93296.59;5013984;28;20030;-76
2023/03/05 10:12:06;;;;;;;31.45;18.50;;;;;;;7.04;43.15;93284.47;5008892;28;20092;-74
2023/03/05 10:14:38;;;;;;;30.10;18.30;;;;;;;7.05;43.19;93278.84;5009906;28;20137;-75
2023/03/05 10:17:23;;;;;;;25.98;17.30;;;;;;;7.20;43.36;93278.47;5003611;28;20031;-75
2023/03/05 10:20:10;;;;;;;30.87;17.60;;;;;;;7.35;43.31;93279.16;5003487;28;20409;-75
2023/03/05 10:23:18;;;;;;;33.90;18.92;;;;;;;7.41;42.49;93276.06;4985664;28;20045;-75
2023/03/05 10:25:52;;;;;;;27.70;16.30;;;;;;;7.32;41.36;93267.31;5015482;28;20049;-77
2023/03/05 10:28:28;;;;;;;27.90;16.35;;;;;;;7.32;42.43;93254.09;4989152;28;20814;-78
2023/03/05 10:31:27;;;;;;;24.55;15.65;;;;;;;7.51;41.20;93267.88;5010158;28;20056;-77
2023/03/05 10:34:00;;;;;;;21.52;14.40;;;;;;;7.53;40.23;93255.09;4999393;28;20046;-76
2023/03/05 10:36:32;;;;;;;26.90;16.15;;;;;;;7.45;40.62;93242.63;4992837;28;20410;-77
2023/03/05 10:39:04;;;;;;;22.35;13.70;;;;;;;7.36;40.37;93251.63;4999699;28;20635;-77
2023/03/05 10:41:42;;;;;;;22.00;14.68;;;;;;;7.36;40.32;93251.63;5001714;28;20075;-75
2023/03/05 10:44:07;;;;;;;20.02;12.75;;;;;;;7.34;40.77;93243.97;5002007;28;20044;-75
2023/03/05 10:46:38;;;;;;;19.80;13.35;;;;;;;7.39;41.23;93243.84;5010514;28;20077;-76
2023/03/05 10:49:18;;;;;;;23.50;14.23;;;;;;;7.43;41.16;93234.22;5016314;28;20619;-76
2023/03/05 10:52:14;;;;;;;24.70;15.80;;;;;;;7.52;42.07;93242.97;5009922;28;20046;-76
2023/03/05 10:54:41;;;;;;;24.70;14.27;;;;;;;7.44;41.85;93230.47;5006231;28;20777;-77
2023/03/05 10:57:19;;;;;;;18.77;13.23;;;;;;;7.38;43.18;93230.94;5017418;28;20068;-75
2023/03/05 11:00:05;;;;;;;23.55;15.60;;;;;;;7.45;42.52;93232.03;5018729;28;21830;-75
2023/03/05 11:02:32;;;;;;;24.58;15.18;;;;;;;7.39;42.43;93214.75;5005556;28;20956;-76
2023/03/05 11:04:58;;;;;;;22.70;15.13;;;;;;;7.47;42.12;93192.84;4999796;28;20049;-76
2023/03/05 11:07:23;;;;;;;21.13;13.80;;;;;;;7.58;40.97;93211.84;5018430;28;20176;-77
2023/03/05 11:10:18;;;;;;;22.25;14.75;;;;;;;7.50;40.37;93208.09;5016207;28;20039;-76
2023/03/05 11:12:44;;;;;;;22.25;13.57;;;;;;;7.24;41.50;93168.34;4998258;28;20060;-75
2023/03/05 11:15:12;;;;;;;24.02;14.00;;;;;;;7.37;40.87;93205.56;5013051;28;20045;-76
2023/03/05 11:17:47;;;;;;;18.85;12.80;;;;;;;7.59;41.09;93202.81;5015100;28;20050;-75
2023/03/05 11:20:32;;;;;;;20.70;14.20;;;;;;;7.68;40.88;93199.09;5017893;28;20055;-75
2023/03/05 11:23:29;;;;;;;22.95;12.88;;;;;;;7.77;40.55;93196.50;4997264;28;20120;-75
2023/03/05 11:26:14;;;;;;;17.83;12.65;;;;;;;7.74;40.38;93186.50;5001133;28;20619;-77
2023/03/05 11:28:56;;;;;;;22.25;13.95;;;;;;;7.81;40.44;93178.13;5017399;28;20722;-77